createdAt,value
2022-12-19T00:01:08.898Z,98.72
2022-12-19T00:03:35.896Z,95.16
2022-12-19T00:06:05.978Z,94.00
2022-12-19T00:08:32.770Z,97.18
2022-12-19T00:11:00.828Z,99.27
2022-12-19T00:13:27.489Z,97.24
2022-12-19T00:16:00.603Z,100.00
2022-12-19T00:18:27.004Z,97.57
2022-12-19T00:21:01.379Z,97.32
2022-12-19T00:23:28.544Z,96.59
2022-12-19T00:25:55.155Z,92.43
2022-12-19T00:28:21.824Z,96.61
2022-12-19T00:30:48.587Z,99.79
2022-12-19T00:33:14.971Z,99.07
2022-12-19T00:35:41.542Z,95.29
2022-12-19T00:38:07.966Z,93.72
2022-12-19T00:40:34.364Z,94.94
2022-12-19T00:43:00.870Z,90.08
2022-12-19T00:45:27.822Z,88.60
2022-12-19T00:47:55.566Z,80.00
2022-12-19T00:50:21.919Z,79.04
2022-12-19T00:52:48.303Z,74.46
2022-12-19T00:55:19.417Z,73.84
2022-12-19T00:57:46.441Z,74.27
2022-12-19T01:00:13.450Z,70.78
2022-12-19T01:02:39.923Z,69.81
2022-12-19T01:05:06.716Z,70.87
2022-12-19T01:07:33.068Z,72.56
2022-12-19T01:09:59.497Z,75.99
2022-12-19T01:12:44.777Z,76.63
2022-12-19T01:15:11.532Z,74.34
2022-12-19T01:17:43.596Z,76.55
2022-12-19T01:20:11.446Z,73.95
2022-12-19T01:22:37.798Z,69.46
2022-12-19T01:25:05.266Z,70.93
2022-12-19T01:27:31.930Z,69.63
2022-12-19T01:29:58.300Z,66.01
2022-12-19T01:32:24.719Z,63.55
2022-12-19T01:34:51.065Z,59.37
2022-12-19T01:37:17.733Z,57.22
2022-12-19T01:39:44.226Z,50.36
2022-12-19T01:42:23.600Z,45.91
2022-12-19T01:45:12.157Z,43.71
2022-12-19T01:47:56.745Z,38.03
2022-12-19T01:50:29.644Z,22.93
2022-12-19T01:52:56.104Z,10.40
2022-12-19T01:55:22.482Z,10.13
2022-12-19T01:57:48.819Z,3.57
2022-12-19T02:00:15.429Z,0.00
2022-12-19T02:02:46.911Z,0.00
2022-12-19T02:05:13.384Z,0.00
2022-12-19T02:07:39.915Z,0.00
2022-12-19T02:10:06.578Z,0.00
2022-12-19T02:12:35.042Z,0.00
2022-12-19T02:15:03.042Z,0.00
2022-12-19T02:17:53.007Z,0.00
2022-12-19T02:20:50.699Z,0.00
2022-12-19T02:23:36.047Z,0.00
2022-12-19T02:26:43.997Z,0.00
2022-12-19T02:29:32.128Z,0.00
2022-12-19T02:32:03.197Z,0.00
2022-12-19T02:34:46.401Z,0.00
2022-12-19T02:37:46.806Z,0.00
2022-12-19T02:40:31.542Z,0.00
2022-12-19T02:43:00.092Z,0.00
2022-12-19T02:45:28.820Z,0.00
2022-12-19T02:47:56.083Z,0.00
2022-12-19T02:50:22.554Z,0.00
2022-12-19T02:52:49.174Z,0.00
2022-12-19T02:55:19.008Z,0.00
2022-12-19T02:58:14.456Z,0.00
2022-12-19T03:00:59.924Z,0.00
2022-12-19T03:03:38.047Z,0.00
2022-12-19T03:06:11.649Z,0.00
2022-12-19T03:08:49.311Z,0.00
2022-12-19T03:11:15.697Z,0.00
2022-12-19T03:13:44.847Z,0.00
2022-12-19T03:16:11.517Z,0.00
2022-12-19T03:18:37.962Z,0.00
2022-12-19T03:21:20.354Z,0.00
2022-12-19T03:23:47.133Z,0.00
2022-12-19T03:26:18.656Z,0.00
2022-12-19T03:28:50.658Z,0.00
2022-12-19T03:31:18.317Z,1.01
2022-12-19T03:33:45.291Z,2.93
2022-12-19T03:36:14.212Z,4.64
2022-12-19T03:38:40.649Z,6.21
2022-12-19T03:41:07.317Z,6.75
2022-12-19T03:43:33.695Z,5.75
2022-12-19T03:46:01.756Z,9.19
2022-12-19T03:48:36.085Z,11.37
2022-12-19T03:51:22.489Z,14.31
2022-12-19T03:54:02.124Z,15.04
2022-12-19T03:56:51.490Z,17.19
2022-12-19T03:59:51.049Z,20.38
2022-12-19T04:02:18.293Z,21.29
2022-12-19T04:04:46.611Z,21.64
2022-12-19T04:07:13.380Z,22.97
2022-12-19T04:09:39.880Z,23.97
2022-12-19T04:12:08.666Z,24.74
2022-12-19T04:14:36.589Z,26.15
2022-12-19T04:17:39.706Z,27.59
2022-12-19T04:20:08.494Z,29.83
2022-12-19T04:22:36.279Z,31.66
2022-12-19T04:25:05.500Z,32.75
2022-12-19T04:27:32.753Z,31.75
2022-12-19T04:29:59.211Z,33.01
2022-12-19T04:32:25.687Z,34.29
2022-12-19T04:34:52.112Z,33.19
2022-12-19T04:37:18.483Z,32.78
2022-12-19T04:39:44.884Z,34.56
2022-12-19T04:42:11.451Z,36.30
2022-12-19T04:44:37.826Z,38.41
2022-12-19T04:47:04.205Z,40.05
2022-12-19T04:49:30.601Z,42.44
2022-12-19T04:51:56.967Z,44.26
2022-12-19T04:54:23.313Z,47.61
2022-12-19T04:56:49.700Z,49.77
2022-12-19T04:59:16.086Z,51.96
2022-12-19T05:01:42.491Z,54.76
2022-12-19T05:04:08.913Z,56.80
2022-12-19T05:06:35.286Z,59.38
2022-12-19T05:09:01.632Z,61.90
2022-12-19T05:11:27.999Z,65.44
2022-12-19T05:13:54.403Z,70.26
2022-12-19T05:16:20.791Z,69.57
2022-12-19T05:18:47.242Z,70.76
2022-12-19T05:21:13.709Z,71.89
2022-12-19T05:23:40.166Z,72.41
2022-12-19T05:26:06.695Z,75.49
2022-12-19T05:28:33.479Z,77.81
2022-12-19T05:31:19.945Z,80.79
2022-12-19T05:33:46.719Z,83.59
2022-12-19T05:36:14.037Z,89.19
2022-12-19T05:38:40.528Z,98.55
2022-12-19T05:41:11.440Z,100.00
2022-12-19T05:43:37.835Z,100.00
2022-12-19T05:46:04.941Z,100.00
2022-12-19T05:48:31.424Z,100.00
2022-12-19T05:50:58.382Z,100.00
2022-12-19T05:53:26.233Z,100.00
2022-12-19T05:55:52.769Z,100.00
2022-12-19T05:58:19.129Z,100.00
2022-12-19T06:00:45.472Z,100.00
2022-12-19T06:03:11.950Z,100.00
2022-12-19T06:05:38.853Z,100.00
2022-12-19T06:08:05.821Z,100.00
2022-12-19T06:10:32.313Z,100.00
2022-12-19T06:12:58.647Z,100.00
2022-12-19T06:15:25.029Z,100.00
2022-12-19T06:17:54.147Z,100.00
2022-12-19T06:20:20.490Z,100.00
2022-12-19T06:22:46.884Z,100.00
2022-12-19T06:25:14.378Z,100.00
2022-12-19T06:27:40.744Z,100.00
2022-12-19T06:30:07.506Z,100.00
2022-12-19T06:32:38.178Z,100.00
2022-12-19T06:35:05.458Z,100.00
2022-12-19T06:37:31.881Z,100.00
2022-12-19T06:39:58.251Z,100.00
2022-12-19T06:42:24.667Z,100.00
2022-12-19T06:44:55.931Z,100.00
2022-12-19T06:47:23.590Z,100.00
2022-12-19T06:49:50.193Z,100.00
2022-12-19T06:52:16.727Z,100.00
2022-12-19T06:54:43.108Z,100.00
2022-12-19T06:57:09.533Z,100.00
2022-12-19T06:59:35.891Z,100.00
2022-12-19T07:02:23.047Z,100.00
2022-12-19T07:04:52.424Z,100.00
2022-12-19T07:07:19.340Z,100.00
2022-12-19T07:09:45.736Z,100.00
2022-12-19T07:12:12.120Z,100.00
2022-12-19T07:14:38.465Z,100.00
2022-12-19T07:17:04.908Z,100.00
2022-12-19T07:19:31.271Z,100.00
2022-12-19T07:21:57.641Z,100.00
2022-12-19T07:24:23.981Z,100.00
2022-12-19T07:26:50.405Z,100.00
2022-12-19T07:29:16.749Z,100.00
2022-12-19T07:31:43.136Z,100.00
2022-12-19T07:34:10.016Z,100.00
2022-12-19T07:36:36.434Z,100.00
2022-12-19T07:39:02.934Z,100.00
2022-12-19T07:41:29.894Z,100.00
2022-12-19T07:43:56.229Z,100.00
2022-12-19T07:46:22.611Z,100.00
2022-12-19T07:48:49.040Z,100.00
2022-12-19T07:51:15.415Z,100.00
2022-12-19T07:53:41.784Z,100.00
2022-12-19T07:56:08.343Z,100.00
2022-12-19T07:58:34.987Z,100.00
2022-12-19T08:01:01.748Z,100.00
2022-12-19T08:03:31.083Z,100.00
2022-12-19T08:06:01.294Z,100.00
2022-12-19T08:08:28.256Z,100.00
2022-12-19T08:10:54.714Z,100.00
2022-12-19T08:13:21.087Z,100.00
2022-12-19T08:15:47.499Z,100.00
2022-12-19T08:18:13.890Z,100.00
2022-12-19T08:20:45.299Z,100.00
2022-12-19T08:23:11.659Z,100.00
2022-12-19T08:25:40.688Z,100.00
2022-12-19T08:28:07.062Z,100.00
2022-12-19T08:30:33.647Z,100.00
2022-12-19T08:33:00.052Z,100.00
2022-12-19T08:35:26.453Z,100.00
2022-12-19T08:37:52.812Z,100.00
2022-12-19T08:40:19.423Z,100.00
2022-12-19T08:42:45.768Z,100.00
2022-12-19T08:45:12.726Z,100.00
2022-12-19T08:47:39.111Z,100.00
2022-12-19T08:50:05.840Z,100.00
2022-12-19T08:52:32.211Z,100.00
2022-12-19T08:54:58.627Z,100.00
2022-12-19T08:57:25.006Z,100.00
2022-12-19T08:59:51.358Z,100.00
2022-12-19T09:02:19.115Z,100.00
2022-12-19T09:05:58.581Z,100.00
2022-12-19T09:07:32.032Z,100.00
2022-12-19T09:10:04.448Z,100.00
2022-12-19T09:12:30.865Z,100.00
2022-12-19T09:14:57.249Z,100.00
2022-12-19T09:17:23.655Z,100.00
2022-12-19T09:19:50.005Z,100.00
2022-12-19T09:22:16.728Z,100.00
2022-12-19T09:24:43.144Z,100.00
2022-12-19T09:27:09.501Z,100.00
2022-12-19T09:29:36.031Z,100.00
2022-12-19T09:32:02.595Z,100.00
2022-12-19T09:34:36.839Z,100.00
2022-12-19T09:37:06.681Z,100.00
2022-12-19T09:39:34.133Z,100.00
2022-12-19T09:42:21.725Z,100.00
2022-12-19T09:44:50.546Z,100.00
2022-12-19T09:47:18.530Z,100.00
2022-12-19T09:49:46.022Z,100.00
2022-12-19T09:52:17.592Z,100.00
2022-12-19T09:55:03.226Z,100.00
2022-12-19T09:57:55.706Z,100.00
2022-12-19T10:00:22.259Z,100.00
2022-12-19T10:03:25.370Z,100.00
2022-12-19T10:06:40.705Z,100.00
2022-12-19T10:09:14.454Z,100.00
2022-12-19T10:12:42.162Z,100.00
2022-12-19T10:14:37.317Z,100.00
2022-12-19T10:17:25.089Z,100.00
2022-12-19T10:20:10.473Z,100.00
2022-12-19T10:22:40.040Z,100.00
2022-12-19T10:25:31.190Z,100.00
2022-12-19T10:28:16.059Z,100.00
2022-12-19T10:30:45.136Z,100.00
2022-12-19T10:33:29.269Z,100.00
2022-12-19T10:36:02.021Z,100.00
2022-12-19T10:38:35.866Z,100.00
2022-12-19T10:41:08.286Z,100.00
2022-12-19T10:43:44.796Z,100.00
2022-12-19T10:46:15.757Z,100.00
2022-12-19T10:48:42.169Z,100.00
2022-12-19T10:51:22.135Z,100.00
2022-12-19T10:53:56.939Z,100.00
2022-12-19T10:56:26.084Z,100.00
2022-12-19T10:58:58.867Z,100.00
2022-12-19T11:01:38.132Z,100.00
2022-12-19T11:04:29.838Z,100.00
2022-12-19T11:07:02.280Z,100.00
2022-12-19T11:09:30.557Z,100.00
2022-12-19T11:16:46.548Z,100.00
2022-12-19T11:16:51.025Z,100.00
2022-12-19T11:26:19.233Z,100.00
2022-12-19T11:29:26.151Z,100.00
2022-12-19T11:30:06.169Z,100.00
2022-12-19T11:30:36.676Z,100.00
2022-12-19T11:30:44.325Z,100.00
2022-12-19T11:34:23.598Z,100.00
2022-12-19T11:37:13.868Z,100.00
2022-12-19T11:39:50.677Z,100.00
2022-12-19T11:42:23.213Z,100.00
2022-12-19T11:45:06.794Z,100.00
2022-12-19T11:47:48.337Z,100.00
2022-12-19T11:50:28.969Z,100.00
2022-12-19T11:53:18.806Z,100.00
2022-12-19T11:56:05.460Z,100.00
2022-12-19T11:58:42.461Z,100.00
2022-12-19T12:01:14.292Z,100.00
2022-12-19T12:04:02.417Z,100.00
2022-12-19T12:06:33.277Z,100.00
2022-12-19T12:12:53.429Z,100.00
2022-12-19T12:22:51.248Z,100.00
2022-12-19T12:27:34.804Z,100.00
2022-12-19T12:31:15.836Z,100.00
2022-12-19T12:31:28.797Z,100.00
2022-12-19T12:31:45.495Z,100.00
2022-12-19T12:31:56.859Z,100.00
2022-12-19T12:35:38.191Z,100.00
2022-12-19T12:35:38.192Z,100.00
2022-12-19T12:38:21.422Z,100.00
2022-12-19T12:41:20.451Z,100.00
2022-12-19T12:43:51.484Z,100.00
2022-12-19T12:46:24.392Z,100.00
2022-12-19T12:49:02.529Z,100.00
2022-12-19T12:51:28.924Z,100.00
2022-12-19T12:54:01.550Z,100.00
2022-12-19T12:56:27.901Z,100.00
2022-12-19T12:58:55.281Z,100.00
2022-12-19T13:01:36.120Z,100.00
2022-12-19T13:04:07.622Z,100.00
2022-12-19T13:06:41.697Z,100.00
2022-12-19T13:09:08.043Z,100.00
2022-12-19T13:11:55.400Z,100.00
2022-12-19T13:14:34.014Z,100.00
2022-12-19T13:17:21.291Z,100.00
2022-12-19T13:19:57.727Z,100.00
2022-12-19T13:22:30.322Z,100.00
2022-12-19T13:24:57.466Z,100.00
2022-12-19T13:27:24.596Z,100.00
2022-12-19T13:30:00.264Z,100.00
2022-12-19T13:32:27.809Z,100.00
2022-12-19T13:35:11.330Z,100.00
2022-12-19T13:39:54.296Z,100.00
2022-12-19T13:41:22.555Z,100.00
2022-12-19T13:43:49.691Z,100.00
2022-12-19T13:46:42.467Z,100.00
2022-12-19T13:49:17.371Z,100.00
2022-12-19T13:51:48.704Z,100.00
2022-12-19T13:54:45.963Z,100.00
2022-12-19T13:57:42.012Z,100.00
2022-12-19T14:00:17.134Z,100.00
2022-12-19T14:02:51.746Z,100.00
2022-12-19T14:05:34.008Z,100.00
2022-12-19T14:08:17.808Z,100.00
2022-12-19T14:11:41.066Z,100.00
2022-12-19T14:14:01.967Z,100.00
2022-12-19T14:16:40.189Z,100.00
2022-12-19T14:19:22.402Z,100.00
2022-12-19T14:22:03.940Z,100.00
2022-12-19T14:24:34.646Z,100.00
2022-12-19T14:28:24.714Z,100.00
2022-12-19T14:30:28.719Z,100.00
2022-12-19T14:33:44.839Z,100.00
2022-12-19T14:36:08.364Z,100.00
2022-12-19T14:39:21.314Z,100.00
2022-12-19T14:41:38.199Z,100.00
2022-12-19T14:52:08.634Z,100.00
2022-12-19T14:54:08.510Z,100.00
2022-12-19T14:54:15.600Z,100.00
2022-12-19T14:54:50.379Z,100.00
2022-12-19T14:56:12.225Z,100.00
2022-12-19T14:58:53.010Z,100.00
2022-12-19T15:01:23.395Z,100.00
2022-12-19T15:04:48.236Z,100.00
2022-12-19T15:07:06.621Z,100.00
2022-12-19T15:10:59.577Z,100.00
2022-12-19T15:13:47.108Z,100.00
2022-12-19T15:15:50.704Z,100.00
2022-12-19T15:18:33.318Z,100.00
2022-12-19T15:21:02.098Z,100.00
2022-12-19T15:23:28.787Z,100.00
2022-12-19T15:26:05.237Z,100.00
2022-12-19T15:28:58.641Z,100.00
2022-12-19T15:31:32.110Z,100.00
2022-12-19T15:36:45.159Z,100.00
2022-12-19T15:39:11.523Z,100.00
2022-12-19T15:41:37.882Z,100.00
2022-12-19T15:44:15.777Z,100.00
2022-12-19T15:46:48.322Z,100.00
2022-12-19T15:49:19.112Z,100.00
2022-12-19T15:51:46.042Z,100.00
2022-12-19T15:54:47.120Z,100.00
2022-12-19T15:56:58.846Z,100.00
2022-12-19T15:59:34.724Z,100.00
2022-12-19T16:02:04.146Z,100.00
2022-12-19T16:04:31.361Z,100.00
2022-12-19T16:06:57.958Z,100.00
2022-12-19T16:09:25.939Z,100.00
2022-12-19T16:11:53.152Z,100.00
2022-12-19T16:14:20.575Z,100.00
2022-12-19T16:16:50.631Z,100.00
2022-12-19T16:19:23.890Z,100.00
2022-12-19T16:21:50.469Z,100.00
2022-12-19T16:24:16.857Z,100.00
2022-12-19T16:26:43.295Z,100.00
2022-12-19T16:29:23.134Z,100.00
2022-12-19T16:31:51.302Z,100.00
2022-12-19T16:34:19.569Z,100.00
2022-12-19T16:36:46.084Z,100.00
2022-12-19T16:39:12.574Z,100.00
2022-12-19T16:41:42.615Z,100.00
2022-12-19T16:44:19.545Z,100.00
2022-12-19T16:46:50.592Z,100.00
2022-12-19T16:49:19.627Z,100.00
2022-12-19T16:51:46.188Z,100.00
2022-12-19T16:54:13.400Z,100.00
2022-12-19T16:56:41.352Z,100.00
2022-12-19T16:59:16.211Z,100.00
2022-12-19T17:01:44.013Z,100.00
2022-12-19T17:04:14.896Z,100.00
2022-12-19T17:06:41.932Z,100.00
2022-12-19T17:09:10.089Z,100.00
2022-12-19T17:11:36.512Z,100.00
2022-12-19T17:14:10.440Z,100.00
2022-12-19T17:16:37.073Z,100.00
2022-12-19T17:19:03.535Z,100.00
2022-12-19T17:21:29.944Z,100.00
2022-12-19T17:23:56.343Z,100.00
2022-12-19T17:26:22.744Z,100.00
2022-12-19T17:28:49.156Z,97.81
2022-12-19T17:31:28.479Z,94.81
2022-12-19T17:33:55.844Z,91.41
2022-12-19T17:36:26.123Z,90.23
2022-12-19T17:38:54.098Z,83.72
2022-12-19T17:41:20.472Z,80.27
2022-12-19T17:43:46.835Z,77.67
2022-12-19T17:46:20.419Z,78.78
2022-12-19T17:48:50.151Z,78.91
2022-12-19T17:51:17.457Z,80.26
2022-12-19T17:53:44.414Z,82.83
2022-12-19T17:56:14.581Z,84.74
2022-12-19T17:58:41.225Z,84.20
2022-12-19T18:01:17.067Z,85.10
2022-12-19T18:03:43.525Z,83.02
2022-12-19T18:06:12.246Z,83.18
2022-12-19T18:08:39.004Z,82.36
2022-12-19T18:11:07.562Z,81.55
2022-12-19T18:13:33.951Z,80.40
2022-12-19T18:16:01.469Z,78.62
2022-12-19T18:18:33.663Z,77.11
2022-12-19T18:21:00.380Z,76.91
2022-12-19T18:23:26.928Z,76.77
2022-12-19T18:26:00.917Z,75.50
2022-12-19T18:28:28.169Z,75.81
2022-12-19T18:30:58.579Z,74.64
2022-12-19T18:33:25.102Z,72.99
2022-12-19T18:35:51.505Z,72.29
2022-12-19T18:38:19.703Z,71.94
2022-12-19T18:40:46.363Z,71.34
2022-12-19T18:43:14.150Z,69.00
2022-12-19T18:45:42.167Z,68.63
2022-12-19T18:48:28.465Z,68.60
2022-12-19T18:50:56.318Z,68.11
2022-12-19T18:53:23.909Z,66.93
2022-12-19T18:55:51.560Z,64.81
2022-12-19T18:58:18.608Z,65.74
2022-12-19T19:00:45.065Z,65.47
2022-12-19T19:03:16.145Z,65.91
2022-12-19T19:05:42.826Z,63.89
2022-12-19T19:08:15.867Z,63.92
2022-12-19T19:10:42.316Z,62.90
2022-12-19T19:13:10.514Z,60.90
2022-12-19T19:15:40.365Z,60.76
2022-12-19T19:18:07.683Z,60.80
2022-12-19T19:20:36.394Z,60.35
2022-12-19T19:23:04.013Z,60.16
2022-12-19T19:25:31.780Z,60.13
2022-12-19T19:27:58.160Z,59.42
2022-12-19T19:30:24.588Z,58.86
2022-12-19T19:33:03.710Z,58.20
2022-12-19T19:35:30.088Z,58.01
2022-12-19T19:37:58.959Z,57.91
2022-12-19T19:40:25.385Z,57.78
2022-12-19T19:42:51.782Z,57.76
2022-12-19T19:45:18.155Z,57.09
2022-12-19T19:47:44.664Z,56.31
2022-12-19T19:50:12.018Z,56.27
2022-12-19T19:52:39.282Z,55.93
2022-12-19T19:55:09.563Z,55.51
2022-12-19T19:57:36.187Z,55.81
2022-12-19T20:00:06.903Z,55.38
2022-12-19T20:02:33.472Z,54.91
2022-12-19T20:05:00.517Z,54.21
2022-12-19T20:07:27.108Z,53.11
2022-12-19T20:09:53.702Z,52.59
2022-12-19T20:12:20.091Z,52.75
2022-12-19T20:14:46.974Z,51.83
2022-12-19T20:17:13.432Z,51.56
2022-12-19T20:19:39.828Z,50.41
2022-12-19T20:22:06.264Z,50.49
2022-12-19T20:24:32.702Z,50.64
2022-12-19T20:26:59.143Z,50.63
2022-12-19T20:29:25.730Z,49.93
2022-12-19T20:31:52.130Z,50.21
2022-12-19T20:34:20.007Z,50.38
2022-12-19T20:36:46.411Z,49.56
2022-12-19T20:39:12.944Z,49.53
2022-12-19T20:41:39.359Z,49.31
2022-12-19T20:44:05.718Z,49.11
2022-12-19T20:46:32.170Z,47.83
2022-12-19T20:48:58.839Z,47.74
2022-12-19T20:51:25.234Z,47.56
2022-12-19T20:53:52.468Z,46.86
2022-12-19T20:56:19.022Z,47.32
2022-12-19T20:58:45.674Z,47.41
2022-12-19T21:01:14.065Z,47.21
2022-12-19T21:03:40.859Z,46.13
2022-12-19T21:06:08.137Z,45.77
2022-12-19T21:08:34.606Z,45.96
2022-12-19T21:11:01.195Z,45.83
2022-12-19T21:13:27.674Z,45.13
2022-12-19T21:15:56.317Z,44.75
2022-12-19T21:18:22.865Z,44.78
2022-12-19T21:20:52.095Z,44.06
2022-12-19T21:23:18.664Z,43.70
2022-12-19T21:25:45.092Z,43.27
2022-12-19T21:28:11.511Z,43.13
2022-12-19T21:30:38.060Z,41.49
2022-12-19T21:33:04.439Z,42.23
2022-12-19T21:35:30.839Z,40.87
2022-12-19T21:37:57.452Z,41.24
2022-12-19T21:40:23.815Z,40.95
2022-12-19T21:42:50.164Z,39.95
2022-12-19T21:45:16.701Z,39.83
2022-12-19T21:47:43.185Z,39.50
2022-12-19T21:50:10.822Z,39.09
2022-12-19T21:52:37.565Z,38.91
2022-12-19T21:55:05.072Z,37.62
2022-12-19T21:57:31.448Z,37.92
2022-12-19T21:59:57.806Z,38.18
2022-12-19T22:02:24.240Z,36.95
2022-12-19T22:04:50.837Z,37.21
2022-12-19T22:07:17.217Z,36.72
2022-12-19T22:09:43.590Z,36.70
2022-12-19T22:12:11.929Z,36.86
2022-12-19T22:14:38.348Z,36.17
2022-12-19T22:17:05.563Z,36.10
2022-12-19T22:19:31.948Z,35.79
2022-12-19T22:21:58.323Z,36.32
2022-12-19T22:24:24.738Z,35.92
2022-12-19T22:26:51.136Z,35.49
2022-12-19T22:29:17.697Z,35.24
2022-12-19T22:31:44.432Z,34.67
2022-12-19T22:34:12.738Z,35.14
2022-12-19T22:36:39.765Z,35.03
2022-12-19T22:39:08.890Z,35.00
2022-12-19T22:41:35.584Z,35.57
2022-12-19T22:44:02.120Z,34.87
2022-12-19T22:46:35.843Z,34.81
2022-12-19T22:49:04.290Z,35.22
2022-12-19T22:51:31.581Z,35.09
2022-12-19T22:53:58.301Z,34.64
2022-12-19T22:56:26.135Z,34.75
2022-12-19T22:58:53.496Z,34.56
2022-12-19T23:01:23.650Z,34.62
2022-12-19T23:03:51.375Z,35.00
2022-12-19T23:06:18.278Z,35.05
2022-12-19T23:08:44.744Z,33.66
2022-12-19T23:11:13.332Z,33.80
2022-12-19T23:13:39.935Z,34.13
2022-12-19T23:16:06.455Z,34.72
2022-12-19T23:18:32.924Z,34.46
2022-12-19T23:21:22.685Z,34.60
2022-12-19T23:23:51.369Z,34.28
2022-12-19T23:26:23.083Z,34.40
2022-12-19T23:28:59.934Z,33.84
2022-12-19T23:31:27.099Z,33.32
2022-12-19T23:33:53.724Z,34.23
2022-12-19T23:36:37.995Z,33.67
2022-12-19T23:39:06.551Z,33.58
2022-12-19T23:41:32.981Z,33.24
2022-12-19T23:43:59.509Z,32.60
2022-12-19T23:46:26.634Z,32.23
2022-12-19T23:48:53.351Z,33.68
2022-12-19T23:51:21.188Z,34.67
2022-12-19T23:53:47.913Z,35.48
2022-12-19T23:56:20.395Z,37.79
2022-12-19T23:58:46.839Z,40.63
